sensor_id;sensor_type;location;lat;lon;timestamp;temperature;humidity
3816;DHT22;1923;48.154;11.536;2023-06-26T00:01:29;22.00;80.40
3816;DHT22;1923;48.154;11.536;2023-06-26T00:03:59;21.90;80.60
3816;DHT22;1923;48.154;11.536;2023-06-26T00:06:30;21.80;81.20
3816;DHT22;1923;48.154;11.536;2023-06-26T00:08:58;21.80;81.40
3816;DHT22;1923;48.154;11.536;2023-06-26T00:11:26;21.70;81.50
3816;DHT22;1923;48.154;11.536;2023-06-26T00:13:58;21.70;81.50
3816;DHT22;1923;48.154;11.536;2023-06-26T00:16:27;21.70;81.70
3816;DHT22;1923;48.154;11.536;2023-06-26T00:18:57;21.70;81.90
3816;DHT22;1923;48.154;11.536;2023-06-26T00:21:26;21.70;82.00
3816;DHT22;1923;48.154;11.536;2023-06-26T00:23:56;21.70;81.90
3816;DHT22;1923;48.154;11.536;2023-06-26T00:26:24;21.60;82.00
3816;DHT22;1923;48.154;11.536;2023-06-26T00:28:52;21.60;82.80
3816;DHT22;1923;48.154;11.536;2023-06-26T00:31:21;21.60;81.80
3816;DHT22;1923;48.154;11.536;2023-06-26T00:33:49;21.50;81.50
3816;DHT22;1923;48.154;11.536;2023-06-26T00:36:18;21.50;81.40
3816;DHT22;1923;48.154;11.536;2023-06-26T00:38:46;21.40;81.70
3816;DHT22;1923;48.154;11.536;2023-06-26T00:41:16;21.40;81.80
3816;DHT22;1923;48.154;11.536;2023-06-26T00:43:44;21.40;81.70
3816;DHT22;1923;48.154;11.536;2023-06-26T00:46:13;21.40;82.00
3816;DHT22;1923;48.154;11.536;2023-06-26T00:48:43;21.40;82.20
3816;DHT22;1923;48.154;11.536;2023-06-26T00:51:12;21.30;82.50
3816;DHT22;1923;48.154;11.536;2023-06-26T00:53:42;21.30;82.20
3816;DHT22;1923;48.154;11.536;2023-06-26T00:56:11;21.20;82.20
3816;DHT22;1923;48.154;11.536;2023-06-26T00:58:42;21.20;82.40
3816;DHT22;1923;48.154;11.536;2023-06-26T01:01:11;21.20;82.30
3816;DHT22;1923;48.154;11.536;2023-06-26T01:03:43;21.20;82.50
3816;DHT22;1923;48.154;11.536;2023-06-26T01:06:13;21.20;82.70
3816;DHT22;1923;48.154;11.536;2023-06-26T01:08:43;21.20;82.80
3816;DHT22;1923;48.154;11.536;2023-06-26T01:11:13;21.20;83.20
3816;DHT22;1923;48.154;11.536;2023-06-26T01:13:43;21.10;82.90
3816;DHT22;1923;48.154;11.536;2023-06-26T01:16:13;21.10;82.90
3816;DHT22;1923;48.154;11.536;2023-06-26T01:18:50;21.10;83.00
3816;DHT22;1923;48.154;11.536;2023-06-26T01:21:19;21.10;83.10
3816;DHT22;1923;48.154;11.536;2023-06-26T01:24:01;21.00;83.40
3816;DHT22;1923;48.154;11.536;2023-06-26T01:26:34;20.90;83.70
3816;DHT22;1923;48.154;11.536;2023-06-26T01:29:04;20.90;84.00
3816;DHT22;1923;48.154;11.536;2023-06-26T01:31:34;20.90;84.20
3816;DHT22;1923;48.154;11.536;2023-06-26T01:34:08;20.80;84.50
3816;DHT22;1923;48.154;11.536;2023-06-26T01:36:36;20.80;84.70
3816;DHT22;1923;48.154;11.536;2023-06-26T01:39:05;20.60;85.30
3816;DHT22;1923;48.154;11.536;2023-06-26T01:41:36;20.60;85.20
3816;DHT22;1923;48.154;11.536;2023-06-26T01:44:14;20.60;85.30
3816;DHT22;1923;48.154;11.536;2023-06-26T01:46:52;20.50;85.50
3816;DHT22;1923;48.154;11.536;2023-06-26T01:49:31;20.50;85.90
3816;DHT22;1923;48.154;11.536;2023-06-26T01:52:06;20.40;85.90
3816;DHT22;1923;48.154;11.536;2023-06-26T01:54:39;20.30;86.20
3816;DHT22;1923;48.154;11.536;2023-06-26T01:57:11;20.30;86.70
3816;DHT22;1923;48.154;11.536;2023-06-26T01:59:42;20.30;86.80
3816;DHT22;1923;48.154;11.536;2023-06-26T02:02:11;20.20;87.10
3816;DHT22;1923;48.154;11.536;2023-06-26T02:04:39;20.20;87.10
3816;DHT22;1923;48.154;11.536;2023-06-26T02:07:08;20.20;87.30
3816;DHT22;1923;48.154;11.536;2023-06-26T02:09:37;20.20;87.70
3816;DHT22;1923;48.154;11.536;2023-06-26T02:12:05;20.20;88.20
3816;DHT22;1923;48.154;11.536;2023-06-26T02:14:35;20.30;88.20
3816;DHT22;1923;48.154;11.536;2023-06-26T02:17:04;20.20;88.20
3816;DHT22;1923;48.154;11.536;2023-06-26T02:19:32;20.20;88.60
3816;DHT22;1923;48.154;11.536;2023-06-26T02:22:00;20.10;89.00
3816;DHT22;1923;48.154;11.536;2023-06-26T02:24:29;20.00;89.20
3816;DHT22;1923;48.154;11.536;2023-06-26T02:26:57;20.10;89.40
3816;DHT22;1923;48.154;11.536;2023-06-26T02:29:25;20.10;89.70
3816;DHT22;1923;48.154;11.536;2023-06-26T02:31:54;20.10;89.90
3816;DHT22;1923;48.154;11.536;2023-06-26T02:34:23;20.00;90.00
3816;DHT22;1923;48.154;11.536;2023-06-26T02:36:51;20.00;90.20
3816;DHT22;1923;48.154;11.536;2023-06-26T02:39:21;19.90;90.40
3816;DHT22;1923;48.154;11.536;2023-06-26T02:41:49;19.90;90.60
3816;DHT22;1923;48.154;11.536;2023-06-26T02:44:17;19.90;90.70
3816;DHT22;1923;48.154;11.536;2023-06-26T02:46:45;20.00;90.80
3816;DHT22;1923;48.154;11.536;2023-06-26T02:49:14;19.90;90.90
3816;DHT22;1923;48.154;11.536;2023-06-26T02:51:43;19.90;91.00
3816;DHT22;1923;48.154;11.536;2023-06-26T02:54:11;19.90;91.00
3816;DHT22;1923;48.154;11.536;2023-06-26T02:56:39;19.80;91.10
3816;DHT22;1923;48.154;11.536;2023-06-26T02:59:13;19.90;91.30
3816;DHT22;1923;48.154;11.536;2023-06-26T03:01:42;19.90;91.40
3816;DHT22;1923;48.154;11.536;2023-06-26T03:04:10;19.80;91.40
3816;DHT22;1923;48.154;11.536;2023-06-26T03:06:39;19.80;91.50
3816;DHT22;1923;48.154;11.536;2023-06-26T03:09:07;19.80;91.40
3816;DHT22;1923;48.154;11.536;2023-06-26T03:11:35;19.80;91.50
3816;DHT22;1923;48.154;11.536;2023-06-26T03:14:04;19.80;91.60
3816;DHT22;1923;48.154;11.536;2023-06-26T03:16:32;19.70;91.60
3816;DHT22;1923;48.154;11.536;2023-06-26T03:19:00;19.70;91.70
3816;DHT22;1923;48.154;11.536;2023-06-26T03:21:28;19.80;91.80
3816;DHT22;1923;48.154;11.536;2023-06-26T03:23:58;19.80;91.90
3816;DHT22;1923;48.154;11.536;2023-06-26T03:26:26;19.80;91.90
3816;DHT22;1923;48.154;11.536;2023-06-26T03:28:55;19.80;91.90
3816;DHT22;1923;48.154;11.536;2023-06-26T03:31:23;19.80;91.90
3816;DHT22;1923;48.154;11.536;2023-06-26T03:33:51;19.80;92.00
3816;DHT22;1923;48.154;11.536;2023-06-26T03:36:19;19.80;91.90
3816;DHT22;1923;48.154;11.536;2023-06-26T03:38:47;19.80;92.00
3816;DHT22;1923;48.154;11.536;2023-06-26T03:41:17;19.80;91.90
3816;DHT22;1923;48.154;11.536;2023-06-26T03:43:45;19.80;92.90
3816;DHT22;1923;48.154;11.536;2023-06-26T03:46:13;19.80;92.90
3816;DHT22;1923;48.154;11.536;2023-06-26T03:48:41;19.70;92.50
3816;DHT22;1923;48.154;11.536;2023-06-26T03:51:09;19.80;92.30
3816;DHT22;1923;48.154;11.536;2023-06-26T03:53:37;19.80;92.40
3816;DHT22;1923;48.154;11.536;2023-06-26T03:56:05;19.80;92.30
3816;DHT22;1923;48.154;11.536;2023-06-26T03:58:35;19.90;92.30
3816;DHT22;1923;48.154;11.536;2023-06-26T04:01:03;19.90;92.40
3816;DHT22;1923;48.154;11.536;2023-06-26T04:03:31;19.90;92.60
3816;DHT22;1923;48.154;11.536;2023-06-26T04:05:59;19.90;92.50
3816;DHT22;1923;48.154;11.536;2023-06-26T04:08:27;19.90;92.50
3816;DHT22;1923;48.154;11.536;2023-06-26T04:10:56;20.00;92.50
3816;DHT22;1923;48.154;11.536;2023-06-26T04:13:25;20.00;92.50
3816;DHT22;1923;48.154;11.536;2023-06-26T04:15:54;20.10;92.50
3816;DHT22;1923;48.154;11.536;2023-06-26T04:18:22;20.10;92.40
3816;DHT22;1923;48.154;11.536;2023-06-26T04:21:10;20.20;92.50
3816;DHT22;1923;48.154;11.536;2023-06-26T04:23:40;20.20;92.70
3816;DHT22;1923;48.154;11.536;2023-06-26T04:26:08;20.30;92.90
3816;DHT22;1923;48.154;11.536;2023-06-26T04:28:41;20.40;92.90
3816;DHT22;1923;48.154;11.536;2023-06-26T04:31:10;20.50;92.90
3816;DHT22;1923;48.154;11.536;2023-06-26T04:33:38;20.50;92.70
3816;DHT22;1923;48.154;11.536;2023-06-26T04:36:09;20.70;94.00
3816;DHT22;1923;48.154;11.536;2023-06-26T04:38:38;20.60;93.70
3816;DHT22;1923;48.154;11.536;2023-06-26T04:41:06;20.70;93.60
3816;DHT22;1923;48.154;11.536;2023-06-26T04:43:34;20.80;93.80
3816;DHT22;1923;48.154;11.536;2023-06-26T04:46:02;20.90;93.60
3816;DHT22;1923;48.154;11.536;2023-06-26T04:48:32;20.90;92.60
3816;DHT22;1923;48.154;11.536;2023-06-26T04:51:00;21.00;93.00
3816;DHT22;1923;48.154;11.536;2023-06-26T04:53:28;21.10;92.90
3816;DHT22;1923;48.154;11.536;2023-06-26T04:55:56;21.20;92.70
3816;DHT22;1923;48.154;11.536;2023-06-26T04:58:24;21.30;92.60
3816;DHT22;1923;48.154;11.536;2023-06-26T05:00:52;21.40;92.10
3816;DHT22;1923;48.154;11.536;2023-06-26T05:03:21;21.50;91.80
3816;DHT22;1923;48.154;11.536;2023-06-26T05:05:51;21.60;91.50
3816;DHT22;1923;48.154;11.536;2023-06-26T05:08:21;21.80;91.60
3816;DHT22;1923;48.154;11.536;2023-06-26T05:10:50;21.90;91.70
3816;DHT22;1923;48.154;11.536;2023-06-26T05:13:20;22.00;91.30
3816;DHT22;1923;48.154;11.536;2023-06-26T05:15:49;22.10;91.10
3816;DHT22;1923;48.154;11.536;2023-06-26T05:18:18;22.20;90.90
3816;DHT22;1923;48.154;11.536;2023-06-26T05:20:46;22.30;90.70
3816;DHT22;1923;48.154;11.536;2023-06-26T05:23:16;22.40;90.60
3816;DHT22;1923;48.154;11.536;2023-06-26T05:25:45;22.50;90.90
3816;DHT22;1923;48.154;11.536;2023-06-26T05:28:14;22.60;90.40
3816;DHT22;1923;48.154;11.536;2023-06-26T05:30:42;22.70;90.30
3816;DHT22;1923;48.154;11.536;2023-06-26T05:33:11;22.80;90.30
3816;DHT22;1923;48.154;11.536;2023-06-26T05:35:41;22.90;90.40
3816;DHT22;1923;48.154;11.536;2023-06-26T05:38:11;23.00;90.20
3816;DHT22;1923;48.154;11.536;2023-06-26T05:40:41;23.10;90.10
3816;DHT22;1923;48.154;11.536;2023-06-26T05:43:10;23.20;90.00
3816;DHT22;1923;48.154;11.536;2023-06-26T05:45:38;23.30;90.00
3816;DHT22;1923;48.154;11.536;2023-06-26T05:48:06;23.50;90.00
3816;DHT22;1923;48.154;11.536;2023-06-26T05:50:35;23.50;90.00
3816;DHT22;1923;48.154;11.536;2023-06-26T05:53:04;23.60;89.70
3816;DHT22;1923;48.154;11.536;2023-06-26T05:55:33;23.60;89.50
3816;DHT22;1923;48.154;11.536;2023-06-26T05:58:03;23.70;90.00
3816;DHT22;1923;48.154;11.536;2023-06-26T06:00:32;24.00;88.70
3816;DHT22;1923;48.154;11.536;2023-06-26T06:03:00;24.10;88.60
3816;DHT22;1923;48.154;11.536;2023-06-26T06:05:28;24.10;88.30
3816;DHT22;1923;48.154;11.536;2023-06-26T06:07:56;24.20;87.60
3816;DHT22;1923;48.154;11.536;2023-06-26T06:10:24;24.30;87.90
3816;DHT22;1923;48.154;11.536;2023-06-26T06:12:52;24.40;87.60
3816;DHT22;1923;48.154;11.536;2023-06-26T06:15:22;24.50;87.70
3816;DHT22;1923;48.154;11.536;2023-06-26T06:17:50;24.60;86.90
3816;DHT22;1923;48.154;11.536;2023-06-26T06:20:19;24.70;86.80
3816;DHT22;1923;48.154;11.536;2023-06-26T06:22:48;24.70;86.80
3816;DHT22;1923;48.154;11.536;2023-06-26T06:25:16;24.90;87.80
3816;DHT22;1923;48.154;11.536;2023-06-26T06:27:44;25.00;86.40
3816;DHT22;1923;48.154;11.536;2023-06-26T06:30:13;25.10;86.40
3816;DHT22;1923;48.154;11.536;2023-06-26T06:32:42;25.10;86.70
3816;DHT22;1923;48.154;11.536;2023-06-26T06:35:11;25.30;86.80
3816;DHT22;1923;48.154;11.536;2023-06-26T06:37:39;25.40;86.50
3816;DHT22;1923;48.154;11.536;2023-06-26T06:40:09;25.60;86.60
3816;DHT22;1923;48.154;11.536;2023-06-26T06:42:37;25.90;85.30
3816;DHT22;1923;48.154;11.536;2023-06-26T06:45:06;26.20;84.80
3816;DHT22;1923;48.154;11.536;2023-06-26T06:47:34;26.40;83.90
3816;DHT22;1923;48.154;11.536;2023-06-26T06:50:05;26.60;84.10
3816;DHT22;1923;48.154;11.536;2023-06-26T06:52:36;26.70;83.80
3816;DHT22;1923;48.154;11.536;2023-06-26T06:55:06;26.80;83.90
3816;DHT22;1923;48.154;11.536;2023-06-26T06:57:36;27.00;82.60
3816;DHT22;1923;48.154;11.536;2023-06-26T07:00:07;27.00;81.90
3816;DHT22;1923;48.154;11.536;2023-06-26T07:02:36;27.10;81.50
3816;DHT22;1923;48.154;11.536;2023-06-26T07:05:06;27.20;81.60
3816;DHT22;1923;48.154;11.536;2023-06-26T07:07:35;27.30;81.50
3816;DHT22;1923;48.154;11.536;2023-06-26T07:10:06;27.40;80.40
3816;DHT22;1923;48.154;11.536;2023-06-26T07:12:35;27.60;80.20
3816;DHT22;1923;48.154;11.536;2023-06-26T07:15:04;27.60;79.60
3816;DHT22;1923;48.154;11.536;2023-06-26T07:17:33;27.70;79.00
3816;DHT22;1923;48.154;11.536;2023-06-26T07:20:02;27.80;78.70
3816;DHT22;1923;48.154;11.536;2023-06-26T07:22:34;28.00;78.60
3816;DHT22;1923;48.154;11.536;2023-06-26T07:25:02;28.20;78.10
3816;DHT22;1923;48.154;11.536;2023-06-26T07:27:31;28.30;77.10
3816;DHT22;1923;48.154;11.536;2023-06-26T07:30:00;28.30;76.70
3816;DHT22;1923;48.154;11.536;2023-06-26T07:32:28;28.50;76.60
3816;DHT22;1923;48.154;11.536;2023-06-26T07:34:56;28.40;76.60
3816;DHT22;1923;48.154;11.536;2023-06-26T07:37:24;28.40;77.00
3816;DHT22;1923;48.154;11.536;2023-06-26T07:39:54;28.50;77.40
3816;DHT22;1923;48.154;11.536;2023-06-26T07:42:22;28.50;77.50
3816;DHT22;1923;48.154;11.536;2023-06-26T07:44:50;28.60;77.60
3816;DHT22;1923;48.154;11.536;2023-06-26T07:47:18;28.80;77.90
3816;DHT22;1923;48.154;11.536;2023-06-26T07:49:47;28.90;77.30
3816;DHT22;1923;48.154;11.536;2023-06-26T07:52:15;29.00;77.40
3816;DHT22;1923;48.154;11.536;2023-06-26T07:54:43;29.10;77.30
3816;DHT22;1923;48.154;11.536;2023-06-26T07:57:13;29.30;76.90
3816;DHT22;1923;48.154;11.536;2023-06-26T07:59:41;29.30;77.20
3816;DHT22;1923;48.154;11.536;2023-06-26T08:02:09;29.40;76.90
3816;DHT22;1923;48.154;11.536;2023-06-26T08:04:37;29.60;77.10
3816;DHT22;1923;48.154;11.536;2023-06-26T08:07:06;29.60;76.00
3816;DHT22;1923;48.154;11.536;2023-06-26T08:09:34;29.80;76.00
3816;DHT22;1923;48.154;11.536;2023-06-26T08:12:02;30.00;76.40
3816;DHT22;1923;48.154;11.536;2023-06-26T08:14:34;30.10;76.10
3816;DHT22;1923;48.154;11.536;2023-06-26T08:17:02;30.40;74.40
3816;DHT22;1923;48.154;11.536;2023-06-26T08:19:30;30.50;74.60
3816;DHT22;1923;48.154;11.536;2023-06-26T08:21:58;30.70;74.50
3816;DHT22;1923;48.154;11.536;2023-06-26T08:24:26;31.10;74.10
3816;DHT22;1923;48.154;11.536;2023-06-26T08:26:54;31.30;73.40
3816;DHT22;1923;48.154;11.536;2023-06-26T08:29:22;31.80;72.60
3816;DHT22;1923;48.154;11.536;2023-06-26T08:31:51;32.40;70.90
3816;DHT22;1923;48.154;11.536;2023-06-26T08:34:19;32.80;70.70
3816;DHT22;1923;48.154;11.536;2023-06-26T08:36:47;33.10;69.80
3816;DHT22;1923;48.154;11.536;2023-06-26T08:39:16;33.50;68.30
3816;DHT22;1923;48.154;11.536;2023-06-26T08:41:44;34.00;66.30
3816;DHT22;1923;48.154;11.536;2023-06-26T08:44:12;35.00;64.90
3816;DHT22;1923;48.154;11.536;2023-06-26T08:46:41;35.90;62.80
3816;DHT22;1923;48.154;11.536;2023-06-26T08:49:14;36.30;60.80
3816;DHT22;1923;48.154;11.536;2023-06-26T08:51:50;36.60;60.20
3816;DHT22;1923;48.154;11.536;2023-06-26T08:54:25;36.90;59.70
3816;DHT22;1923;48.154;11.536;2023-06-26T08:56:56;37.40;58.80
3816;DHT22;1923;48.154;11.536;2023-06-26T08:59:25;37.60;57.50
3816;DHT22;1923;48.154;11.536;2023-06-26T09:01:53;37.80;57.50
3816;DHT22;1923;48.154;11.536;2023-06-26T09:04:23;38.30;56.00
3816;DHT22;1923;48.154;11.536;2023-06-26T09:06:51;38.50;54.80
3816;DHT22;1923;48.154;11.536;2023-06-26T09:09:19;38.60;54.60
3816;DHT22;1923;48.154;11.536;2023-06-26T09:11:48;38.30;54.70
3816;DHT22;1923;48.154;11.536;2023-06-26T09:14:17;37.90;54.50
3816;DHT22;1923;48.154;11.536;2023-06-26T09:16:45;37.80;54.40
3816;DHT22;1923;48.154;11.536;2023-06-26T09:19:14;37.50;55.00
3816;DHT22;1923;48.154;11.536;2023-06-26T09:21:43;37.60;54.60
3816;DHT22;1923;48.154;11.536;2023-06-26T09:24:12;37.60;53.80
3816;DHT22;1923;48.154;11.536;2023-06-26T09:26:40;37.70;53.80
3816;DHT22;1923;48.154;11.536;2023-06-26T09:29:10;37.90;53.60
3816;DHT22;1923;48.154;11.536;2023-06-26T09:31:38;38.30;53.10
3816;DHT22;1923;48.154;11.536;2023-06-26T09:34:08;38.70;52.60
3816;DHT22;1923;48.154;11.536;2023-06-26T09:36:37;39.00;51.30
3816;DHT22;1923;48.154;11.536;2023-06-26T09:39:12;40.00;51.10
3816;DHT22;1923;48.154;11.536;2023-06-26T09:41:42;41.60;48.80
3816;DHT22;1923;48.154;11.536;2023-06-26T09:44:13;42.40;46.50
3816;DHT22;1923;48.154;11.536;2023-06-26T09:46:45;43.70;45.20
3816;DHT22;1923;48.154;11.536;2023-06-26T09:49:13;44.60;42.80
3816;DHT22;1923;48.154;11.536;2023-06-26T09:51:42;45.50;41.10
3816;DHT22;1923;48.154;11.536;2023-06-26T09:54:12;45.30;40.30
3816;DHT22;1923;48.154;11.536;2023-06-26T09:56:40;45.50;39.90
3816;DHT22;1923;48.154;11.536;2023-06-26T09:59:08;46.20;38.70
3816;DHT22;1923;48.154;11.536;2023-06-26T10:01:41;46.40;38.00
3816;DHT22;1923;48.154;11.536;2023-06-26T10:04:10;45.30;37.50
3816;DHT22;1923;48.154;11.536;2023-06-26T10:06:41;44.20;38.40
3816;DHT22;1923;48.154;11.536;2023-06-26T10:09:15;43.80;39.20
3816;DHT22;1923;48.154;11.536;2023-06-26T10:11:47;43.50;39.30
3816;DHT22;1923;48.154;11.536;2023-06-26T10:14:17;43.80;39.00
3816;DHT22;1923;48.154;11.536;2023-06-26T10:16:48;43.90;38.20
3816;DHT22;1923;48.154;11.536;2023-06-26T10:19:19;44.00;37.90
3816;DHT22;1923;48.154;11.536;2023-06-26T10:21:53;44.80;37.90
3816;DHT22;1923;48.154;11.536;2023-06-26T10:24:25;45.30;37.40
3816;DHT22;1923;48.154;11.536;2023-06-26T10:26:59;45.70;37.00
3816;DHT22;1923;48.154;11.536;2023-06-26T10:29:27;45.50;36.80
3816;DHT22;1923;48.154;11.536;2023-06-26T10:31:58;44.90;37.10
3816;DHT22;1923;48.154;11.536;2023-06-26T10:34:30;44.40;37.20
3816;DHT22;1923;48.154;11.536;2023-06-26T10:36:59;44.40;37.60
3816;DHT22;1923;48.154;11.536;2023-06-26T10:39:46;44.60;36.80
3816;DHT22;1923;48.154;11.536;2023-06-26T10:42:16;45.10;36.40
3816;DHT22;1923;48.154;11.536;2023-06-26T10:44:47;45.20;35.80
3816;DHT22;1923;48.154;11.536;2023-06-26T10:47:29;46.10;35.60
3816;DHT22;1923;48.154;11.536;2023-06-26T10:50:17;46.00;35.10
3816;DHT22;1923;48.154;11.536;2023-06-26T10:53:07;45.70;34.80
3816;DHT22;1923;48.154;11.536;2023-06-26T10:55:39;46.10;35.00
3816;DHT22;1923;48.154;11.536;2023-06-26T10:58:26;46.20;35.10
3816;DHT22;1923;48.154;11.536;2023-06-26T11:01:14;45.50;35.20
3816;DHT22;1923;48.154;11.536;2023-06-26T11:03:46;45.20;35.50
3816;DHT22;1923;48.154;11.536;2023-06-26T11:06:20;44.60;35.40
3816;DHT22;1923;48.154;11.536;2023-06-26T11:08:49;44.40;35.30
3816;DHT22;1923;48.154;11.536;2023-06-26T11:11:20;42.70;36.50
3816;DHT22;1923;48.154;11.536;2023-06-26T11:13:48;41.50;37.70
3816;DHT22;1923;48.154;11.536;2023-06-26T11:16:17;40.80;38.70
3816;DHT22;1923;48.154;11.536;2023-06-26T11:18:45;40.10;39.70
3816;DHT22;1923;48.154;11.536;2023-06-26T11:21:13;39.10;40.10
3816;DHT22;1923;48.154;11.536;2023-06-26T11:23:42;38.40;41.00
3816;DHT22;1923;48.154;11.536;2023-06-26T11:26:16;38.00;42.50
3816;DHT22;1923;48.154;11.536;2023-06-26T11:28:50;37.40;42.90
3816;DHT22;1923;48.154;11.536;2023-06-26T11:31:25;37.10;44.50
3816;DHT22;1923;48.154;11.536;2023-06-26T11:33:54;36.90;44.30
3816;DHT22;1923;48.154;11.536;2023-06-26T11:36:25;36.50;44.50
3816;DHT22;1923;48.154;11.536;2023-06-26T11:38:53;36.20;45.00
3816;DHT22;1923;48.154;11.536;2023-06-26T11:41:23;35.70;45.60
3816;DHT22;1923;48.154;11.536;2023-06-26T11:43:53;35.30;46.20
3816;DHT22;1923;48.154;11.536;2023-06-26T11:46:22;35.30;46.40
3816;DHT22;1923;48.154;11.536;2023-06-26T11:48:51;35.10;46.60
3816;DHT22;1923;48.154;11.536;2023-06-26T11:51:19;34.90;46.90
3816;DHT22;1923;48.154;11.536;2023-06-26T11:53:48;34.80;47.00
3816;DHT22;1923;48.154;11.536;2023-06-26T11:56:17;34.70;47.10
3816;DHT22;1923;48.154;11.536;2023-06-26T11:59:00;34.40;47.50
3816;DHT22;1923;48.154;11.536;2023-06-26T12:01:34;34.30;47.30
3816;DHT22;1923;48.154;11.536;2023-06-26T12:04:04;34.30;46.80
3816;DHT22;1923;48.154;11.536;2023-06-26T12:06:35;34.20;46.50
3816;DHT22;1923;48.154;11.536;2023-06-26T12:09:06;34.30;46.80
3816;DHT22;1923;48.154;11.536;2023-06-26T12:11:38;34.30;47.00
3816;DHT22;1923;48.154;11.536;2023-06-26T12:14:08;34.40;47.30
3816;DHT22;1923;48.154;11.536;2023-06-26T12:16:37;34.50;47.10
3816;DHT22;1923;48.154;11.536;2023-06-26T12:19:07;34.50;47.70
3816;DHT22;1923;48.154;11.536;2023-06-26T12:21:49;34.50;47.00
3816;DHT22;1923;48.154;11.536;2023-06-26T12:24:20;34.60;47.30
3816;DHT22;1923;48.154;11.536;2023-06-26T12:26:51;34.70;48.30
3816;DHT22;1923;48.154;11.536;2023-06-26T12:29:21;34.70;47.90
3816;DHT22;1923;48.154;11.536;2023-06-26T12:31:56;34.60;47.90
3816;DHT22;1923;48.154;11.536;2023-06-26T12:34:27;34.50;47.70
3816;DHT22;1923;48.154;11.536;2023-06-26T12:37:00;34.40;47.00
3816;DHT22;1923;48.154;11.536;2023-06-26T12:39:29;34.10;47.00
3816;DHT22;1923;48.154;11.536;2023-06-26T12:42:00;33.90;47.90
3816;DHT22;1923;48.154;11.536;2023-06-26T12:44:33;33.90;47.60
3816;DHT22;1923;48.154;11.536;2023-06-26T12:47:02;33.90;48.60
3816;DHT22;1923;48.154;11.536;2023-06-26T12:49:31;33.90;49.10
3816;DHT22;1923;48.154;11.536;2023-06-26T12:52:01;33.90;48.70
3816;DHT22;1923;48.154;11.536;2023-06-26T12:54:30;33.80;48.40
3816;DHT22;1923;48.154;11.536;2023-06-26T12:56:58;33.70;47.60
3816;DHT22;1923;48.154;11.536;2023-06-26T12:59:27;33.50;48.40
3816;DHT22;1923;48.154;11.536;2023-06-26T13:01:56;33.60;48.70
3816;DHT22;1923;48.154;11.536;2023-06-26T13:04:24;33.40;48.30
3816;DHT22;1923;48.154;11.536;2023-06-26T13:06:52;33.30;48.50
3816;DHT22;1923;48.154;11.536;2023-06-26T13:09:21;33.40;49.40
3816;DHT22;1923;48.154;11.536;2023-06-26T13:11:50;33.40;49.20
3816;DHT22;1923;48.154;11.536;2023-06-26T13:14:18;33.50;49.40
3816;DHT22;1923;48.154;11.536;2023-06-26T13:16:47;33.60;49.30
3816;DHT22;1923;48.154;11.536;2023-06-26T13:19:17;33.60;49.00
3816;DHT22;1923;48.154;11.536;2023-06-26T13:21:45;33.50;48.80
3816;DHT22;1923;48.154;11.536;2023-06-26T13:24:13;33.30;49.10
3816;DHT22;1923;48.154;11.536;2023-06-26T13:26:41;33.30;49.60
3816;DHT22;1923;48.154;11.536;2023-06-26T13:29:09;33.20;49.70
3816;DHT22;1923;48.154;11.536;2023-06-26T13:31:37;33.10;50.10
3816;DHT22;1923;48.154;11.536;2023-06-26T13:34:06;33.30;50.50
3816;DHT22;1923;48.154;11.536;2023-06-26T13:36:35;33.10;50.30
3816;DHT22;1923;48.154;11.536;2023-06-26T13:39:04;33.00;50.40
3816;DHT22;1923;48.154;11.536;2023-06-26T13:41:32;32.90;50.70
3816;DHT22;1923;48.154;11.536;2023-06-26T13:44:00;32.60;51.30
3816;DHT22;1923;48.154;11.536;2023-06-26T13:46:48;32.60;51.20
3816;DHT22;1923;48.154;11.536;2023-06-26T13:49:16;32.60;50.70
3816;DHT22;1923;48.154;11.536;2023-06-26T13:51:46;32.50;51.20
3816;DHT22;1923;48.154;11.536;2023-06-26T13:54:15;32.40;51.40
3816;DHT22;1923;48.154;11.536;2023-06-26T13:56:44;32.40;51.90
3816;DHT22;1923;48.154;11.536;2023-06-26T13:59:13;32.40;51.70
3816;DHT22;1923;48.154;11.536;2023-06-26T14:01:41;32.40;51.70
3816;DHT22;1923;48.154;11.536;2023-06-26T14:04:11;32.50;51.70
3816;DHT22;1923;48.154;11.536;2023-06-26T14:06:39;32.40;51.80
3816;DHT22;1923;48.154;11.536;2023-06-26T14:09:08;32.40;51.60
3816;DHT22;1923;48.154;11.536;2023-06-26T14:11:36;32.30;51.60
3816;DHT22;1923;48.154;11.536;2023-06-26T14:14:04;32.30;51.80
3816;DHT22;1923;48.154;11.536;2023-06-26T14:16:32;32.30;51.40
3816;DHT22;1923;48.154;11.536;2023-06-26T14:19:01;32.20;51.00
3816;DHT22;1923;48.154;11.536;2023-06-26T14:21:29;32.20;50.90
3816;DHT22;1923;48.154;11.536;2023-06-26T14:23:57;32.20;51.30
3816;DHT22;1923;48.154;11.536;2023-06-26T14:26:26;32.10;51.30
3816;DHT22;1923;48.154;11.536;2023-06-26T14:28:56;32.20;51.50
3816;DHT22;1923;48.154;11.536;2023-06-26T14:31:24;32.30;51.80
3816;DHT22;1923;48.154;11.536;2023-06-26T14:33:52;32.30;51.40
3816;DHT22;1923;48.154;11.536;2023-06-26T14:36:20;32.30;51.80
3816;DHT22;1923;48.154;11.536;2023-06-26T14:38:48;32.20;51.50
3816;DHT22;1923;48.154;11.536;2023-06-26T14:41:17;32.20;51.90
3816;DHT22;1923;48.154;11.536;2023-06-26T14:43:47;32.20;51.90
3816;DHT22;1923;48.154;11.536;2023-06-26T14:46:15;32.20;52.20
3816;DHT22;1923;48.154;11.536;2023-06-26T14:48:44;32.20;52.60
3816;DHT22;1923;48.154;11.536;2023-06-26T14:51:12;32.20;52.10
3816;DHT22;1923;48.154;11.536;2023-06-26T14:53:40;32.20;52.10
3816;DHT22;1923;48.154;11.536;2023-06-26T14:56:08;32.20;52.50
3816;DHT22;1923;48.154;11.536;2023-06-26T14:58:36;32.20;52.50
3816;DHT22;1923;48.154;11.536;2023-06-26T15:01:06;32.20;52.70
3816;DHT22;1923;48.154;11.536;2023-06-26T15:03:34;32.30;51.60
3816;DHT22;1923;48.154;11.536;2023-06-26T15:06:02;32.50;51.60
3816;DHT22;1923;48.154;11.536;2023-06-26T15:08:30;32.50;51.90
3816;DHT22;1923;48.154;11.536;2023-06-26T15:11:01;32.50;51.90
3816;DHT22;1923;48.154;11.536;2023-06-26T15:13:29;32.50;51.90
3816;DHT22;1923;48.154;11.536;2023-06-26T15:15:57;32.50;52.20
3816;DHT22;1923;48.154;11.536;2023-06-26T15:18:26;32.60;52.30
3816;DHT22;1923;48.154;11.536;2023-06-26T15:20:55;32.70;51.80
3816;DHT22;1923;48.154;11.536;2023-06-26T15:23:23;32.50;51.50
3816;DHT22;1923;48.154;11.536;2023-06-26T15:25:51;32.50;51.70
3816;DHT22;1923;48.154;11.536;2023-06-26T15:28:19;32.40;52.10
3816;DHT22;1923;48.154;11.536;2023-06-26T15:30:47;32.40;52.30
3816;DHT22;1923;48.154;11.536;2023-06-26T15:33:16;32.40;52.60
3816;DHT22;1923;48.154;11.536;2023-06-26T15:35:45;32.30;52.70
3816;DHT22;1923;48.154;11.536;2023-06-26T15:38:13;32.30;52.00
3816;DHT22;1923;48.154;11.536;2023-06-26T15:40:42;32.20;52.30
3816;DHT22;1923;48.154;11.536;2023-06-26T15:43:10;32.20;52.30
3816;DHT22;1923;48.154;11.536;2023-06-26T15:45:38;32.10;52.70
3816;DHT22;1923;48.154;11.536;2023-06-26T15:48:06;32.10;56.30
3816;DHT22;1923;48.154;11.536;2023-06-26T15:50:34;32.00;56.00
3816;DHT22;1923;48.154;11.536;2023-06-26T15:53:04;31.90;55.30
3816;DHT22;1923;48.154;11.536;2023-06-26T15:55:32;31.80;55.30
3816;DHT22;1923;48.154;11.536;2023-06-26T15:58:01;31.70;55.30
3816;DHT22;1923;48.154;11.536;2023-06-26T16:00:29;31.70;55.60